sensor_id;sensor_type;location;lat;lon;timestamp;P1;durP1;ratioP1;P2;durP2;ratioP2
32812;SDS011;19162;48.254;11.454;2024-02-15T00:01:27;3.05;;;2.28;;
32812;SDS011;19162;48.254;11.454;2024-02-15T00:04:27;4.00;;;2.78;;
32812;SDS011;19162;48.254;11.454;2024-02-15T00:07:28;2.55;;;2.35;;
32812;SDS011;19162;48.254;11.454;2024-02-15T00:10:29;2.38;;;2.17;;
32812;SDS011;19162;48.254;11.454;2024-02-15T00:13:29;3.07;;;2.77;;
32812;SDS011;19162;48.254;11.454;2024-02-15T00:16:30;3.55;;;2.88;;
32812;SDS011;19162;48.254;11.454;2024-02-15T00:19:30;3.60;;;3.17;;
32812;SDS011;19162;48.254;11.454;2024-02-15T00:22:31;2.57;;;2.37;;
32812;SDS011;19162;48.254;11.454;2024-02-15T00:25:33;2.53;;;2.33;;
32812;SDS011;19162;48.254;11.454;2024-02-15T00:28:33;2.57;;;2.37;;
32812;SDS011;19162;48.254;11.454;2024-02-15T00:31:34;2.35;;;2.15;;
32812;SDS011;19162;48.254;11.454;2024-02-15T00:34:36;2.55;;;2.35;;
32812;SDS011;19162;48.254;11.454;2024-02-15T00:37:37;3.03;;;2.60;;
32812;SDS011;19162;48.254;11.454;2024-02-15T00:40:37;2.90;;;2.70;;
32812;SDS011;19162;48.254;11.454;2024-02-15T00:43:37;2.42;;;2.22;;
32812;SDS011;19162;48.254;11.454;2024-02-15T00:46:38;2.70;;;2.50;;
32812;SDS011;19162;48.254;11.454;2024-02-15T00:49:38;2.72;;;2.47;;
32812;SDS011;19162;48.254;11.454;2024-02-15T00:52:38;2.47;;;2.27;;
32812;SDS011;19162;48.254;11.454;2024-02-15T00:55:39;2.10;;;1.80;;
32812;SDS011;19162;48.254;11.454;2024-02-15T00:58:39;2.60;;;2.40;;
32812;SDS011;19162;48.254;11.454;2024-02-15T01:01:39;4.43;;;2.70;;
32812;SDS011;19162;48.254;11.454;2024-02-15T01:04:40;2.30;;;2.08;;
32812;SDS011;19162;48.254;11.454;2024-02-15T01:07:42;2.40;;;2.22;;
32812;SDS011;19162;48.254;11.454;2024-02-15T01:10:43;1.88;;;1.77;;
32812;SDS011;19162;48.254;11.454;2024-02-15T01:13:43;2.13;;;1.92;;
32812;SDS011;19162;48.254;11.454;2024-02-15T01:16:44;1.83;;;1.70;;
32812;SDS011;19162;48.254;11.454;2024-02-15T01:19:44;1.83;;;1.73;;
32812;SDS011;19162;48.254;11.454;2024-02-15T01:22:45;2.13;;;1.92;;
32812;SDS011;19162;48.254;11.454;2024-02-15T01:25:45;1.60;;;1.40;;
32812;SDS011;19162;48.254;11.454;2024-02-15T01:28:45;1.63;;;1.52;;
32812;SDS011;19162;48.254;11.454;2024-02-15T01:31:46;1.90;;;1.70;;
32812;SDS011;19162;48.254;11.454;2024-02-15T01:34:46;1.67;;;1.58;;
32812;SDS011;19162;48.254;11.454;2024-02-15T01:37:46;4.77;;;2.03;;
32812;SDS011;19162;48.254;11.454;2024-02-15T01:40:47;3.90;;;1.90;;
32812;SDS011;19162;48.254;11.454;2024-02-15T01:43:47;2.10;;;1.90;;
32812;SDS011;19162;48.254;11.454;2024-02-15T01:46:47;2.13;;;1.83;;
32812;SDS011;19162;48.254;11.454;2024-02-15T01:49:48;3.28;;;2.22;;
32812;SDS011;19162;48.254;11.454;2024-02-15T01:52:49;2.10;;;1.90;;
32812;SDS011;19162;48.254;11.454;2024-02-15T01:55:52;2.95;;;2.05;;
32812;SDS011;19162;48.254;11.454;2024-02-15T01:58:52;2.20;;;2.00;;
32812;SDS011;19162;48.254;11.454;2024-02-15T02:01:53;1.90;;;1.80;;
32812;SDS011;19162;48.254;11.454;2024-02-15T02:04:53;3.75;;;2.20;;
32812;SDS011;19162;48.254;11.454;2024-02-15T02:07:53;2.45;;;2.25;;
32812;SDS011;19162;48.254;11.454;2024-02-15T02:10:54;2.27;;;1.77;;
32812;SDS011;19162;48.254;11.454;2024-02-15T02:13:54;2.37;;;2.17;;
32812;SDS011;19162;48.254;11.454;2024-02-15T02:16:54;2.75;;;1.70;;
32812;SDS011;19162;48.254;11.454;2024-02-15T02:19:55;3.50;;;2.17;;
32812;SDS011;19162;48.254;11.454;2024-02-15T02:22:59;2.35;;;2.15;;
32812;SDS011;19162;48.254;11.454;2024-02-15T02:26:01;2.25;;;2.05;;
32812;SDS011;19162;48.254;11.454;2024-02-15T02:29:01;2.47;;;2.28;;
32812;SDS011;19162;48.254;11.454;2024-02-15T02:32:05;2.65;;;2.22;;
32812;SDS011;19162;48.254;11.454;2024-02-15T02:35:05;2.58;;;1.98;;
32812;SDS011;19162;48.254;11.454;2024-02-15T02:38:07;2.17;;;2.05;;
32812;SDS011;19162;48.254;11.454;2024-02-15T02:41:07;2.30;;;1.90;;
32812;SDS011;19162;48.254;11.454;2024-02-15T02:44:09;1.92;;;1.83;;
32812;SDS011;19162;48.254;11.454;2024-02-15T02:47:09;2.47;;;2.28;;
32812;SDS011;19162;48.254;11.454;2024-02-15T02:50:09;2.60;;;2.23;;
32812;SDS011;19162;48.254;11.454;2024-02-15T02:53:09;1.63;;;1.53;;
32812;SDS011;19162;48.254;11.454;2024-02-15T02:56:10;2.35;;;2.15;;
32812;SDS011;19162;48.254;11.454;2024-02-15T02:59:12;2.40;;;2.20;;
32812;SDS011;19162;48.254;11.454;2024-02-15T03:02:12;2.78;;;2.58;;
32812;SDS011;19162;48.254;11.454;2024-02-15T03:05:13;1.92;;;1.80;;
32812;SDS011;19162;48.254;11.454;2024-02-15T03:08:13;2.53;;;2.33;;
32812;SDS011;19162;48.254;11.454;2024-02-15T03:11:13;2.20;;;2.10;;
32812;SDS011;19162;48.254;11.454;2024-02-15T03:14:16;2.42;;;2.22;;
32812;SDS011;19162;48.254;11.454;2024-02-15T03:17:16;2.88;;;2.08;;
32812;SDS011;19162;48.254;11.454;2024-02-15T03:20:17;3.15;;;2.60;;
32812;SDS011;19162;48.254;11.454;2024-02-15T03:23:20;2.50;;;2.30;;
32812;SDS011;19162;48.254;11.454;2024-02-15T03:26:30;2.70;;;2.37;;
32812;SDS011;19162;48.254;11.454;2024-02-15T03:29:40;2.60;;;2.40;;
32812;SDS011;19162;48.254;11.454;2024-02-15T03:32:40;3.03;;;2.40;;
32812;SDS011;19162;48.254;11.454;2024-02-15T03:35:41;2.60;;;2.40;;
32812;SDS011;19162;48.254;11.454;2024-02-15T03:38:41;3.35;;;2.42;;
32812;SDS011;19162;48.254;11.454;2024-02-15T03:41:44;2.67;;;2.47;;
32812;SDS011;19162;48.254;11.454;2024-02-15T03:44:45;3.13;;;2.33;;
32812;SDS011;19162;48.254;11.454;2024-02-15T03:47:47;2.40;;;2.20;;
32812;SDS011;19162;48.254;11.454;2024-02-15T03:50:49;2.60;;;2.35;;
32812;SDS011;19162;48.254;11.454;2024-02-15T03:53:50;2.28;;;2.08;;
32812;SDS011;19162;48.254;11.454;2024-02-15T03:56:52;3.33;;;1.90;;
32812;SDS011;19162;48.254;11.454;2024-02-15T03:59:52;2.85;;;1.67;;
32812;SDS011;19162;48.254;11.454;2024-02-15T04:02:54;3.97;;;2.38;;
32812;SDS011;19162;48.254;11.454;2024-02-15T04:05:55;2.50;;;2.35;;
32812;SDS011;19162;48.254;11.454;2024-02-15T04:08:55;2.38;;;2.17;;
32812;SDS011;19162;48.254;11.454;2024-02-15T04:11:55;2.00;;;1.85;;
32812;SDS011;19162;48.254;11.454;2024-02-15T04:14:57;2.17;;;2.00;;
32812;SDS011;19162;48.254;11.454;2024-02-15T04:18:04;4.53;;;1.77;;
32812;SDS011;19162;48.254;11.454;2024-02-15T04:21:05;3.05;;;2.58;;
32812;SDS011;19162;48.254;11.454;2024-02-15T04:24:07;2.88;;;2.10;;
32812;SDS011;19162;48.254;11.454;2024-02-15T04:27:07;3.15;;;2.22;;
32812;SDS011;19162;48.254;11.454;2024-02-15T04:30:20;2.00;;;1.85;;
32812;SDS011;19162;48.254;11.454;2024-02-15T04:36:25;2.33;;;2.10;;
32812;SDS011;19162;48.254;11.454;2024-02-15T04:39:25;1.98;;;1.88;;
32812;SDS011;19162;48.254;11.454;2024-02-15T04:42:28;2.80;;;2.00;;
32812;SDS011;19162;48.254;11.454;2024-02-15T04:45:28;2.57;;;2.37;;
32812;SDS011;19162;48.254;11.454;2024-02-15T04:48:30;2.47;;;2.28;;
32812;SDS011;19162;48.254;11.454;2024-02-15T04:51:30;1.97;;;1.80;;
32812;SDS011;19162;48.254;11.454;2024-02-15T04:54:32;2.10;;;1.90;;
32812;SDS011;19162;48.254;11.454;2024-02-15T04:57:32;2.20;;;2.00;;
32812;SDS011;19162;48.254;11.454;2024-02-15T05:00:34;2.35;;;2.15;;
32812;SDS011;19162;48.254;11.454;2024-02-15T05:03:36;3.28;;;2.50;;
32812;SDS011;19162;48.254;11.454;2024-02-15T05:06:36;3.08;;;2.67;;
32812;SDS011;19162;48.254;11.454;2024-02-15T05:09:37;2.50;;;2.30;;
32812;SDS011;19162;48.254;11.454;2024-02-15T05:12:37;2.50;;;2.30;;
32812;SDS011;19162;48.254;11.454;2024-02-15T05:15:40;2.33;;;2.13;;
32812;SDS011;19162;48.254;11.454;2024-02-15T05:18:40;3.15;;;2.85;;
32812;SDS011;19162;48.254;11.454;2024-02-15T05:21:40;3.00;;;2.70;;
32812;SDS011;19162;48.254;11.454;2024-02-15T05:24:40;3.37;;;3.07;;
32812;SDS011;19162;48.254;11.454;2024-02-15T05:27:41;4.70;;;3.72;;
32812;SDS011;19162;48.254;11.454;2024-02-15T05:30:42;4.80;;;2.70;;
32812;SDS011;19162;48.254;11.454;2024-02-15T05:33:44;4.45;;;3.20;;
32812;SDS011;19162;48.254;11.454;2024-02-15T05:36:45;3.38;;;3.00;;
32812;SDS011;19162;48.254;11.454;2024-02-15T05:39:45;2.90;;;2.60;;
32812;SDS011;19162;48.254;11.454;2024-02-15T05:42:45;2.47;;;2.27;;
32812;SDS011;19162;48.254;11.454;2024-02-15T05:45:46;3.50;;;3.20;;
32812;SDS011;19162;48.254;11.454;2024-02-15T05:48:46;3.30;;;2.93;;
32812;SDS011;19162;48.254;11.454;2024-02-15T05:51:46;4.05;;;3.28;;
32812;SDS011;19162;48.254;11.454;2024-02-15T05:54:48;3.33;;;3.03;;
32812;SDS011;19162;48.254;11.454;2024-02-15T05:57:48;3.58;;;3.25;;
32812;SDS011;19162;48.254;11.454;2024-02-15T06:00:48;3.20;;;2.90;;
32812;SDS011;19162;48.254;11.454;2024-02-15T06:03:49;4.30;;;2.75;;
32812;SDS011;19162;48.254;11.454;2024-02-15T06:06:54;3.47;;;3.13;;
32812;SDS011;19162;48.254;11.454;2024-02-15T06:09:58;3.90;;;2.70;;
32812;SDS011;19162;48.254;11.454;2024-02-15T06:13:03;3.40;;;3.10;;
32812;SDS011;19162;48.254;11.454;2024-02-15T06:16:03;3.33;;;3.03;;
32812;SDS011;19162;48.254;11.454;2024-02-15T06:19:09;3.50;;;3.20;;
32812;SDS011;19162;48.254;11.454;2024-02-15T06:22:09;3.42;;;3.13;;
32812;SDS011;19162;48.254;11.454;2024-02-15T06:25:09;3.47;;;3.17;;
32812;SDS011;19162;48.254;11.454;2024-02-15T06:28:10;2.80;;;2.60;;
32812;SDS011;19162;48.254;11.454;2024-02-15T06:31:19;3.97;;;3.03;;
32812;SDS011;19162;48.254;11.454;2024-02-15T06:34:38;3.78;;;3.40;;
32812;SDS011;19162;48.254;11.454;2024-02-15T06:37:57;3.60;;;3.30;;
32812;SDS011;19162;48.254;11.454;2024-02-15T06:41:16;3.03;;;2.83;;
32812;SDS011;19162;48.254;11.454;2024-02-15T06:44:16;2.88;;;2.67;;
32812;SDS011;19162;48.254;11.454;2024-02-15T06:47:16;3.78;;;2.92;;
32812;SDS011;19162;48.254;11.454;2024-02-15T06:50:19;3.13;;;2.83;;
32812;SDS011;19162;48.254;11.454;2024-02-15T06:53:19;6.33;;;3.37;;
32812;SDS011;19162;48.254;11.454;2024-02-15T06:56:20;3.55;;;2.70;;
32812;SDS011;19162;48.254;11.454;2024-02-15T06:59:20;3.47;;;3.17;;
32812;SDS011;19162;48.254;11.454;2024-02-15T07:02:22;3.53;;;3.22;;
32812;SDS011;19162;48.254;11.454;2024-02-15T07:05:23;3.20;;;2.90;;
32812;SDS011;19162;48.254;11.454;2024-02-15T07:08:23;4.03;;;3.63;;
32812;SDS011;19162;48.254;11.454;2024-02-15T07:11:26;5.78;;;3.30;;
32812;SDS011;19162;48.254;11.454;2024-02-15T07:14:28;14.38;;;3.85;;
32812;SDS011;19162;48.254;11.454;2024-02-15T07:17:28;6.47;;;3.70;;
32812;SDS011;19162;48.254;11.454;2024-02-15T07:20:29;8.02;;;4.57;;
32812;SDS011;19162;48.254;11.454;2024-02-15T07:23:29;6.40;;;4.35;;
32812;SDS011;19162;48.254;11.454;2024-02-15T07:26:30;7.28;;;3.88;;
32812;SDS011;19162;48.254;11.454;2024-02-15T07:29:30;5.05;;;3.90;;
32812;SDS011;19162;48.254;11.454;2024-02-15T07:32:32;4.10;;;3.80;;
32812;SDS011;19162;48.254;11.454;2024-02-15T07:35:35;6.00;;;4.18;;
32812;SDS011;19162;48.254;11.454;2024-02-15T07:38:35;4.27;;;3.77;;
32812;SDS011;19162;48.254;11.454;2024-02-15T07:41:36;5.15;;;4.75;;
32812;SDS011;19162;48.254;11.454;2024-02-15T07:44:36;6.25;;;5.65;;
32812;SDS011;19162;48.254;11.454;2024-02-15T07:47:37;6.03;;;4.88;;
32812;SDS011;19162;48.254;11.454;2024-02-15T07:50:38;8.50;;;5.03;;
32812;SDS011;19162;48.254;11.454;2024-02-15T07:53:40;5.70;;;5.15;;
32812;SDS011;19162;48.254;11.454;2024-02-15T07:56:40;5.97;;;4.50;;
32812;SDS011;19162;48.254;11.454;2024-02-15T07:59:41;4.83;;;4.20;;
32812;SDS011;19162;48.254;11.454;2024-02-15T08:02:42;6.03;;;4.55;;
32812;SDS011;19162;48.254;11.454;2024-02-15T08:05:42;6.40;;;4.20;;
32812;SDS011;19162;48.254;11.454;2024-02-15T08:08:43;7.72;;;3.90;;
32812;SDS011;19162;48.254;11.454;2024-02-15T08:11:47;7.70;;;3.70;;
32812;SDS011;19162;48.254;11.454;2024-02-15T08:14:47;3.97;;;3.65;;
32812;SDS011;19162;48.254;11.454;2024-02-15T08:17:47;4.65;;;3.20;;
32812;SDS011;19162;48.254;11.454;2024-02-15T08:20:47;4.70;;;3.42;;
32812;SDS011;19162;48.254;11.454;2024-02-15T08:23:48;4.47;;;3.20;;
32812;SDS011;19162;48.254;11.454;2024-02-15T08:26:48;7.68;;;4.05;;
32812;SDS011;19162;48.254;11.454;2024-02-15T08:29:48;6.15;;;4.13;;
32812;SDS011;19162;48.254;11.454;2024-02-15T08:32:48;12.82;;;6.18;;
32812;SDS011;19162;48.254;11.454;2024-02-15T08:35:49;29.48;;;21.15;;
32812;SDS011;19162;48.254;11.454;2024-02-15T08:38:49;32.50;;;21.95;;
32812;SDS011;19162;48.254;11.454;2024-02-15T08:41:50;23.67;;;15.82;;
32812;SDS011;19162;48.254;11.454;2024-02-15T08:44:52;9.77;;;6.60;;
32812;SDS011;19162;48.254;11.454;2024-02-15T08:47:53;6.90;;;4.00;;
32812;SDS011;19162;48.254;11.454;2024-02-15T08:50:53;11.37;;;4.37;;
32812;SDS011;19162;48.254;11.454;2024-02-15T08:53:53;5.75;;;3.28;;
32812;SDS011;19162;48.254;11.454;2024-02-15T08:56:53;6.70;;;3.10;;
32812;SDS011;19162;48.254;11.454;2024-02-15T08:59:53;6.90;;;3.63;;
32812;SDS011;19162;48.254;11.454;2024-02-15T09:02:54;3.95;;;2.78;;
32812;SDS011;19162;48.254;11.454;2024-02-15T09:05:57;3.93;;;2.87;;
32812;SDS011;19162;48.254;11.454;2024-02-15T09:08:59;5.32;;;3.03;;
32812;SDS011;19162;48.254;11.454;2024-02-15T09:12:05;3.17;;;2.90;;
32812;SDS011;19162;48.254;11.454;2024-02-15T09:15:09;3.15;;;2.83;;
32812;SDS011;19162;48.254;11.454;2024-02-15T09:18:10;3.83;;;2.00;;
32812;SDS011;19162;48.254;11.454;2024-02-15T09:21:10;2.97;;;2.30;;
32812;SDS011;19162;48.254;11.454;2024-02-15T09:24:11;3.30;;;2.55;;
32812;SDS011;19162;48.254;11.454;2024-02-15T09:27:11;2.88;;;2.67;;
32812;SDS011;19162;48.254;11.454;2024-02-15T09:30:12;3.00;;;2.70;;
32812;SDS011;19162;48.254;11.454;2024-02-15T09:33:12;2.60;;;2.40;;
32812;SDS011;19162;48.254;11.454;2024-02-15T09:36:12;7.53;;;2.90;;
32812;SDS011;19162;48.254;11.454;2024-02-15T09:39:13;4.43;;;3.45;;
32812;SDS011;19162;48.254;11.454;2024-02-15T09:42:14;2.50;;;2.30;;
32812;SDS011;19162;48.254;11.454;2024-02-15T09:45:14;2.53;;;2.33;;
32812;SDS011;19162;48.254;11.454;2024-02-15T09:48:16;2.78;;;2.58;;
32812;SDS011;19162;48.254;11.454;2024-02-15T09:51:18;3.45;;;2.63;;
32812;SDS011;19162;48.254;11.454;2024-02-15T09:54:18;8.05;;;2.83;;
32812;SDS011;19162;48.254;11.454;2024-02-15T09:57:22;3.08;;;2.63;;
32812;SDS011;19162;48.254;11.454;2024-02-15T10:00:22;3.53;;;2.40;;
32812;SDS011;19162;48.254;11.454;2024-02-15T10:03:23;3.22;;;2.92;;
32812;SDS011;19162;48.254;11.454;2024-02-15T10:06:25;2.75;;;2.55;;
32812;SDS011;19162;48.254;11.454;2024-02-15T10:09:28;4.07;;;2.55;;
32812;SDS011;19162;48.254;11.454;2024-02-15T10:12:37;2.58;;;2.38;;
32812;SDS011;19162;48.254;11.454;2024-02-15T10:15:39;2.33;;;2.03;;
32812;SDS011;19162;48.254;11.454;2024-02-15T10:18:45;9.00;;;2.72;;
32812;SDS011;19162;48.254;11.454;2024-02-15T10:21:46;2.17;;;1.98;;
32812;SDS011;19162;48.254;11.454;2024-02-15T10:24:47;2.33;;;2.00;;
32812;SDS011;19162;48.254;11.454;2024-02-15T10:27:47;2.83;;;2.58;;
32812;SDS011;19162;48.254;11.454;2024-02-15T10:30:47;3.25;;;2.70;;
32812;SDS011;19162;48.254;11.454;2024-02-15T10:33:49;3.85;;;2.70;;
32812;SDS011;19162;48.254;11.454;2024-02-15T10:36:50;2.85;;;2.35;;
32812;SDS011;19162;48.254;11.454;2024-02-15T10:40:08;2.60;;;2.40;;
32812;SDS011;19162;48.254;11.454;2024-02-15T10:43:09;3.30;;;2.35;;
32812;SDS011;19162;48.254;11.454;2024-02-15T10:46:13;4.40;;;2.35;;
32812;SDS011;19162;48.254;11.454;2024-02-15T10:49:14;2.38;;;2.15;;
32812;SDS011;19162;48.254;11.454;2024-02-15T10:52:14;2.63;;;1.93;;
32812;SDS011;19162;48.254;11.454;2024-02-15T10:55:17;2.70;;;2.17;;
32812;SDS011;19162;48.254;11.454;2024-02-15T10:58:19;4.82;;;2.05;;
32812;SDS011;19162;48.254;11.454;2024-02-15T11:01:20;7.22;;;1.45;;
32812;SDS011;19162;48.254;11.454;2024-02-15T11:04:22;1.77;;;1.60;;
32812;SDS011;19162;48.254;11.454;2024-02-15T11:07:25;4.30;;;1.90;;
32812;SDS011;19162;48.254;11.454;2024-02-15T11:10:28;5.68;;;1.77;;
32812;SDS011;19162;48.254;11.454;2024-02-15T11:13:28;3.95;;;2.00;;
32812;SDS011;19162;48.254;11.454;2024-02-15T11:16:39;3.85;;;1.73;;
32812;SDS011;19162;48.254;11.454;2024-02-15T11:19:40;1.83;;;1.20;;
32812;SDS011;19162;48.254;11.454;2024-02-15T11:22:41;2.25;;;1.48;;
32812;SDS011;19162;48.254;11.454;2024-02-15T11:25:42;3.72;;;1.38;;
32812;SDS011;19162;48.254;11.454;2024-02-15T11:28:43;5.30;;;1.67;;
32812;SDS011;19162;48.254;11.454;2024-02-15T11:31:53;3.10;;;1.45;;
32812;SDS011;19162;48.254;11.454;2024-02-15T11:35:02;3.17;;;1.85;;
32812;SDS011;19162;48.254;11.454;2024-02-15T11:38:09;1.98;;;1.20;;
32812;SDS011;19162;48.254;11.454;2024-02-15T11:41:17;1.67;;;1.50;;
32812;SDS011;19162;48.254;11.454;2024-02-15T11:44:18;3.40;;;1.17;;
32812;SDS011;19162;48.254;11.454;2024-02-15T11:47:18;4.85;;;1.70;;
32812;SDS011;19162;48.254;11.454;2024-02-15T11:50:20;1.42;;;1.15;;
32812;SDS011;19162;48.254;11.454;2024-02-15T11:53:20;2.00;;;1.23;;
32812;SDS011;19162;48.254;11.454;2024-02-15T11:56:20;2.28;;;1.20;;
32812;SDS011;19162;48.254;11.454;2024-02-15T11:59:21;3.70;;;1.48;;
32812;SDS011;19162;48.254;11.454;2024-02-15T12:02:43;2.72;;;1.60;;
32812;SDS011;19162;48.254;11.454;2024-02-15T12:06:02;2.72;;;1.23;;
32812;SDS011;19162;48.254;11.454;2024-02-15T12:09:21;2.05;;;1.33;;
32812;SDS011;19162;48.254;11.454;2024-02-15T12:12:49;2.67;;;1.20;;
32812;SDS011;19162;48.254;11.454;2024-02-15T12:16:08;1.35;;;1.00;;
32812;SDS011;19162;48.254;11.454;2024-02-15T12:19:27;3.10;;;0.90;;
32812;SDS011;19162;48.254;11.454;2024-02-15T12:25:40;4.03;;;1.23;;
32812;SDS011;19162;48.254;11.454;2024-02-15T12:28:41;1.48;;;1.10;;
32812;SDS011;19162;48.254;11.454;2024-02-15T12:31:42;1.10;;;0.90;;
32812;SDS011;19162;48.254;11.454;2024-02-15T12:34:44;1.65;;;1.33;;
32812;SDS011;19162;48.254;11.454;2024-02-15T12:37:45;4.18;;;1.13;;
32812;SDS011;19162;48.254;11.454;2024-02-15T12:40:45;1.20;;;1.00;;
32812;SDS011;19162;48.254;11.454;2024-02-15T12:43:46;3.28;;;1.45;;
32812;SDS011;19162;48.254;11.454;2024-02-15T12:46:46;1.45;;;1.00;;
32812;SDS011;19162;48.254;11.454;2024-02-15T12:49:48;1.48;;;1.10;;
32812;SDS011;19162;48.254;11.454;2024-02-15T12:55:54;0.90;;;0.80;;
32812;SDS011;19162;48.254;11.454;2024-02-15T12:58:55;1.83;;;0.85;;
32812;SDS011;19162;48.254;11.454;2024-02-15T13:01:55;0.85;;;0.82;;
32812;SDS011;19162;48.254;11.454;2024-02-15T13:04:58;1.95;;;1.10;;
32812;SDS011;19162;48.254;11.454;2024-02-15T13:07:58;1.92;;;1.08;;
32812;SDS011;19162;48.254;11.454;2024-02-15T13:10:59;0.63;;;0.60;;
32812;SDS011;19162;48.254;11.454;2024-02-15T13:13:59;1.25;;;0.93;;
32812;SDS011;19162;48.254;11.454;2024-02-15T13:16:59;1.15;;;0.65;;
32812;SDS011;19162;48.254;11.454;2024-02-15T13:20:00;2.80;;;1.10;;
32812;SDS011;19162;48.254;11.454;2024-02-15T13:23:04;1.30;;;0.98;;
32812;SDS011;19162;48.254;11.454;2024-02-15T13:26:25;1.60;;;0.95;;
32812;SDS011;19162;48.254;11.454;2024-02-15T13:29:25;1.10;;;1.00;;
32812;SDS011;19162;48.254;11.454;2024-02-15T13:32:26;3.43;;;1.10;;
32812;SDS011;19162;48.254;11.454;2024-02-15T13:35:26;1.35;;;1.00;;
32812;SDS011;19162;48.254;11.454;2024-02-15T13:38:26;3.30;;;1.20;;
32812;SDS011;19162;48.254;11.454;2024-02-15T13:41:28;1.73;;;0.80;;
32812;SDS011;19162;48.254;11.454;2024-02-15T13:44:28;1.92;;;1.10;;
32812;SDS011;19162;48.254;11.454;2024-02-15T13:47:30;1.73;;;1.10;;
32812;SDS011;19162;48.254;11.454;2024-02-15T13:50:31;1.63;;;0.95;;
32812;SDS011;19162;48.254;11.454;2024-02-15T13:53:31;1.98;;;1.05;;
32812;SDS011;19162;48.254;11.454;2024-02-15T13:56:32;2.60;;;1.27;;
32812;SDS011;19162;48.254;11.454;2024-02-15T13:59:32;1.33;;;1.20;;
32812;SDS011;19162;48.254;11.454;2024-02-15T14:02:34;2.50;;;1.33;;
32812;SDS011;19162;48.254;11.454;2024-02-15T14:05:34;2.40;;;1.25;;
32812;SDS011;19162;48.254;11.454;2024-02-15T14:08:35;1.53;;;0.80;;
32812;SDS011;19162;48.254;11.454;2024-02-15T14:11:35;1.67;;;1.08;;
32812;SDS011;19162;48.254;11.454;2024-02-15T14:14:35;1.83;;;1.13;;
32812;SDS011;19162;48.254;11.454;2024-02-15T14:17:36;1.70;;;1.15;;
32812;SDS011;19162;48.254;11.454;2024-02-15T14:20:36;2.20;;;1.67;;
32812;SDS011;19162;48.254;11.454;2024-02-15T14:23:37;4.10;;;1.08;;
32812;SDS011;19162;48.254;11.454;2024-02-15T14:26:37;1.55;;;1.23;;
32812;SDS011;19162;48.254;11.454;2024-02-15T14:29:37;2.27;;;1.17;;
32812;SDS011;19162;48.254;11.454;2024-02-15T14:32:45;2.10;;;1.10;;
32812;SDS011;19162;48.254;11.454;2024-02-15T14:36:00;1.73;;;1.00;;
32812;SDS011;19162;48.254;11.454;2024-02-15T14:39:01;1.70;;;1.20;;
32812;SDS011;19162;48.254;11.454;2024-02-15T14:42:01;1.90;;;0.90;;
32812;SDS011;19162;48.254;11.454;2024-02-15T14:45:01;2.78;;;1.70;;
32812;SDS011;19162;48.254;11.454;2024-02-15T14:48:01;1.83;;;1.30;;
32812;SDS011;19162;48.254;11.454;2024-02-15T14:51:03;2.20;;;0.85;;
32812;SDS011;19162;48.254;11.454;2024-02-15T14:54:03;2.35;;;1.15;;
32812;SDS011;19162;48.254;11.454;2024-02-15T14:57:04;3.83;;;1.52;;
32812;SDS011;19162;48.254;11.454;2024-02-15T15:00:05;2.38;;;1.17;;
32812;SDS011;19162;48.254;11.454;2024-02-15T15:03:11;1.48;;;1.20;;
32812;SDS011;19162;48.254;11.454;2024-02-15T15:06:14;2.72;;;1.45;;
32812;SDS011;19162;48.254;11.454;2024-02-15T15:09:32;3.22;;;1.50;;
32812;SDS011;19162;48.254;11.454;2024-02-15T15:12:52;2.30;;;1.27;;
32812;SDS011;19162;48.254;11.454;2024-02-15T15:15:53;2.63;;;1.40;;
32812;SDS011;19162;48.254;11.454;2024-02-15T15:18:54;2.35;;;1.20;;
32812;SDS011;19162;48.254;11.454;2024-02-15T15:21:55;1.42;;;1.33;;
32812;SDS011;19162;48.254;11.454;2024-02-15T15:24:55;1.52;;;1.40;;
32812;SDS011;19162;48.254;11.454;2024-02-15T15:27:56;2.55;;;1.00;;
32812;SDS011;19162;48.254;11.454;2024-02-15T15:30:57;1.60;;;1.10;;
32812;SDS011;19162;48.254;11.454;2024-02-15T15:33:57;2.63;;;1.20;;
32812;SDS011;19162;48.254;11.454;2024-02-15T15:36:57;3.77;;;1.30;;
32812;SDS011;19162;48.254;11.454;2024-02-15T15:39:57;2.92;;;1.20;;
32812;SDS011;19162;48.254;11.454;2024-02-15T15:42:58;1.33;;;1.17;;
32812;SDS011;19162;48.254;11.454;2024-02-15T15:45:58;2.05;;;1.25;;
32812;SDS011;19162;48.254;11.454;2024-02-15T15:48:58;3.23;;;1.30;;
32812;SDS011;19162;48.254;11.454;2024-02-15T15:51:59;2.28;;;1.10;;
32812;SDS011;19162;48.254;11.454;2024-02-15T15:55:00;3.45;;;1.50;;
32812;SDS011;19162;48.254;11.454;2024-02-15T15:58:00;2.67;;;1.52;;
32812;SDS011;19162;48.254;11.454;2024-02-15T16:01:00;4.07;;;1.10;;
32812;SDS011;19162;48.254;11.454;2024-02-15T16:04:00;2.30;;;1.23;;
32812;SDS011;19162;48.254;11.454;2024-02-15T16:07:01;2.33;;;1.50;;
32812;SDS011;19162;48.254;11.454;2024-02-15T16:10:01;1.85;;;1.70;;
32812;SDS011;19162;48.254;11.454;2024-02-15T16:13:01;3.40;;;1.37;;
32812;SDS011;19162;48.254;11.454;2024-02-15T16:16:01;2.27;;;1.77;;
32812;SDS011;19162;48.254;11.454;2024-02-15T16:19:03;2.67;;;1.60;;
32812;SDS011;19162;48.254;11.454;2024-02-15T16:22:04;1.85;;;1.38;;
32812;SDS011;19162;48.254;11.454;2024-02-15T16:25:05;4.37;;;1.73;;
32812;SDS011;19162;48.254;11.454;2024-02-15T16:28:05;1.92;;;1.40;;
32812;SDS011;19162;48.254;11.454;2024-02-15T16:31:06;7.30;;;1.80;;
32812;SDS011;19162;48.254;11.454;2024-02-15T16:34:06;3.50;;;1.65;;
32812;SDS011;19162;48.254;11.454;2024-02-15T16:37:06;2.25;;;1.50;;
32812;SDS011;19162;48.254;11.454;2024-02-15T16:40:07;3.50;;;2.05;;
32812;SDS011;19162;48.254;11.454;2024-02-15T16:43:08;3.65;;;1.85;;
32812;SDS011;19162;48.254;11.454;2024-02-15T16:46:08;12.63;;;11.52;;
32812;SDS011;19162;48.254;11.454;2024-02-15T16:49:11;3.23;;;2.60;;
32812;SDS011;19162;48.254;11.454;2024-02-15T16:55:11;5.60;;;2.90;;
32812;SDS011;19162;48.254;11.454;2024-02-15T16:58:13;3.00;;;2.40;;
32812;SDS011;19162;48.254;11.454;2024-02-15T17:01:13;4.50;;;3.28;;
32812;SDS011;19162;48.254;11.454;2024-02-15T17:04:13;5.45;;;3.22;;
32812;SDS011;19162;48.254;11.454;2024-02-15T17:07:15;6.80;;;3.67;;
32812;SDS011;19162;48.254;11.454;2024-02-15T17:10:16;9.00;;;2.67;;
32812;SDS011;19162;48.254;11.454;2024-02-15T17:13:16;6.60;;;2.97;;
32812;SDS011;19162;48.254;11.454;2024-02-15T17:16:19;5.60;;;3.07;;
32812;SDS011;19162;48.254;11.454;2024-02-15T17:22:19;7.40;;;2.58;;
32812;SDS011;19162;48.254;11.454;2024-02-15T17:25:21;4.28;;;2.90;;
32812;SDS011;19162;48.254;11.454;2024-02-15T17:28:22;3.67;;;2.03;;
32812;SDS011;19162;48.254;11.454;2024-02-15T17:31:22;3.67;;;2.95;;
32812;SDS011;19162;48.254;11.454;2024-02-15T17:34:23;2.87;;;2.67;;
32812;SDS011;19162;48.254;11.454;2024-02-15T17:40:25;3.15;;;2.38;;
32812;SDS011;19162;48.254;11.454;2024-02-15T17:43:25;4.45;;;3.35;;
32812;SDS011;19162;48.254;11.454;2024-02-15T17:46:29;4.30;;;3.00;;
32812;SDS011;19162;48.254;11.454;2024-02-15T17:49:29;4.38;;;2.78;;
32812;SDS011;19162;48.254;11.454;2024-02-15T17:52:30;4.68;;;2.83;;
32812;SDS011;19162;48.254;11.454;2024-02-15T17:55:30;2.50;;;2.30;;
32812;SDS011;19162;48.254;11.454;2024-02-15T17:58:30;5.22;;;2.53;;
32812;SDS011;19162;48.254;11.454;2024-02-15T18:01:31;5.32;;;3.00;;
32812;SDS011;19162;48.254;11.454;2024-02-15T18:04:34;5.78;;;3.10;;
32812;SDS011;19162;48.254;11.454;2024-02-15T18:07:34;4.47;;;3.10;;
32812;SDS011;19162;48.254;11.454;2024-02-15T18:10:34;3.50;;;2.38;;
32812;SDS011;19162;48.254;11.454;2024-02-15T18:13:37;2.85;;;2.58;;
32812;SDS011;19162;48.254;11.454;2024-02-15T18:16:41;3.25;;;2.95;;